Sao Caetano de Odivelas, Brazil
Current Conditions -  °F | °C
As of 9:00 PM on Wednesday 26 Nov 2014 (Local Time) from SBBE Reporting Station
Few Clouds Few Clouds  
Wind Chill: 81°   Ceiling: Unl
Heat Index: 85°   Visibility: 6mi
Dew Point: 73°   Wind: 9mph
Humidity: 79%   Direction: 60°ENE
Pressure: 29.8"   Gusts: NA
Location:  0.75°S, 48.04°W
Report Text: SBBE 270000Z 06008KT 9999 FEW030 27/23 Q1009
Loading
Personal Weather Stations






























Interactive Weather Map New forecast layout! Learn more

10-Day Weather Forecast

Advertisements
Track Severe Weather on mobile